Time;durP1;ratioP1;P1;durP2;ratioP2;P2;SDS_P1;SDS_P2;PMS_P1;PMS_P2;Temp;Humidity;BMP_temperature;BMP_pressure;BME280_temperature;BME280_humidity;BME280_pressure;Samples;Min_cycle;Max_cycle;Signal;HPM_P1;HPM_P2
2021/11/14 00:02:03;;;;;;;;;5.67;4.33;;;;;18.82;47.11;101473.56;5099990;27;46051;-57
2021/11/14 00:04:28;;;;;;;;;5.67;3.33;;;;;18.81;47.26;101478.00;5100000;27;45360;-58
2021/11/14 00:06:53;;;;;;;;;4.00;4.00;;;;;18.81;47.21;101488.66;5100308;27;45264;-58
2021/11/14 00:09:19;;;;;;;;;6.00;3.33;;;;;18.80;47.36;101486.91;5100290;27;45535;-58
2021/11/14 00:11:44;;;;;;;;;3.67;3.33;;;;;18.80;47.42;101481.56;5100058;27;45943;-58
2021/11/14 00:14:10;;;;;;;;;3.67;3.67;;;;;18.79;47.29;101486.88;5099950;27;45209;-57
2021/11/14 00:16:35;;;;;;;;;4.00;4.00;;;;;18.78;47.38;101486.00;5099950;27;45384;-58
2021/11/14 00:19:01;;;;;;;;;3.00;3.00;;;;;18.78;47.25;101490.44;5100216;27;45470;-58
2021/11/14 00:21:28;;;;;;;;;4.00;4.00;;;;;18.77;47.52;101494.00;5099875;27;47330;-57
2021/11/14 00:23:54;;;;;;;;;4.00;4.00;;;;;18.75;47.36;101484.25;5100065;27;45361;-58
2021/11/14 00:26:20;;;;;;;;;4.00;3.33;;;;;18.76;47.53;101485.13;5099914;27;45242;-58
2021/11/14 00:28:47;;;;;;;;;3.33;3.00;;;;;18.75;47.33;101486.91;5099908;27;45334;-58
2021/11/14 00:31:17;;;;;;;;;3.00;3.00;;;;;18.76;47.42;101485.13;5099685;27;46281;-58
2021/11/14 00:33:44;;;;;;;;;6.00;3.33;;;;;18.74;47.57;101486.94;5099552;27;45289;-57
2021/11/14 00:36:15;;;;;;;;;4.33;3.67;;;;;18.74;47.19;101484.25;5099873;27;45349;-58
2021/11/14 00:38:41;;;;;;;;;2.67;2.67;;;;;18.74;47.46;101486.94;5099666;27;45520;-58
2021/11/14 00:41:07;;;;;;;;;3.67;3.67;;;;;18.73;47.26;101487.81;5099210;27;46207;-58
2021/11/14 00:43:34;;;;;;;;;3.67;3.67;;;;;18.73;47.55;101493.13;5099413;27;45440;-57
2021/11/14 00:46:01;;;;;;;;;6.33;5.00;;;;;18.71;47.46;101490.47;5099474;27;45387;-58
2021/11/14 00:48:27;;;;;;;;;4.67;3.67;;;;;18.72;47.48;101488.69;5098314;27;45306;-58
2021/11/14 00:50:53;;;;;;;;;2.00;2.00;;;;;18.69;47.44;101480.72;5099344;27;47284;-58
2021/11/14 00:53:18;;;;;;;;;5.00;5.00;;;;;18.70;47.49;101488.69;5099487;27;45332;-58
2021/11/14 00:55:45;;;;;;;;;4.67;3.33;;;;;18.69;47.27;101484.28;5099357;27;45214;-58
2021/11/14 00:58:11;;;;;;;;;4.33;4.33;;;;;18.69;47.22;101483.38;5099556;27;45617;-58
2021/11/14 01:00:37;;;;;;;;;5.00;4.33;;;;;18.67;47.30;101480.72;5098906;27;46424;-58
2021/11/14 01:03:05;;;;;;;;;1.67;0.67;;;;;18.68;47.24;101484.25;5099181;27;45243;-58
2021/11/14 01:05:32;;;;;;;;;2.67;2.67;;;;;18.68;47.47;101481.59;5099458;27;45420;-57
2021/11/14 01:07:57;;;;;;;;;3.33;3.33;;;;;18.68;47.70;101484.25;5099577;27;45464;-58
2021/11/14 01:10:28;;;;;;;;;3.33;3.33;;;;;18.67;47.41;101483.41;5098980;27;46149;-58
2021/11/14 01:12:53;;;;;;;;;4.00;4.00;;;;;18.67;47.28;101494.06;5099356;27;45496;-58
2021/11/14 01:15:20;;;;;;;;;4.67;4.00;;;;;18.66;47.56;101480.72;5099291;27;45306;-58
2021/11/14 01:17:46;;;;;;;;;3.00;2.67;;;;;18.66;47.46;101484.28;5099271;27;45431;-57
2021/11/14 01:20:17;;;;;;;;;4.00;4.00;;;;;18.66;47.64;101488.72;5098791;27;45541;-58
2021/11/14 01:22:43;;;;;;;;;4.33;4.33;;;;;18.63;47.29;101485.16;5098922;27;45264;-57
2021/11/14 01:25:11;;;;;;;;;2.67;2.67;;;;;18.65;47.43;101492.28;5099129;27;45331;-57
2021/11/14 01:27:38;;;;;;;;;5.33;3.33;;;;;18.65;47.46;101494.94;5098926;27;45441;-58
2021/11/14 01:30:08;;;;;;;;;4.00;4.00;;;;;18.64;47.30;101494.03;5098458;27;46403;-58
2021/11/14 01:32:34;;;;;;;;;4.00;4.00;;;;;18.63;47.38;101485.16;5098445;27;45455;-58
2021/11/14 01:34:59;;;;;;;;;4.00;4.00;;;;;18.63;47.63;101492.28;5098855;27;45339;-57
2021/11/14 01:37:24;;;;;;;;;4.00;4.00;;;;;18.63;47.71;101492.28;5098795;27;45492;-58
2021/11/14 01:39:50;;;;;;;;;4.00;4.00;;;;;18.62;47.49;101477.19;5097271;27;48292;-57
2021/11/14 01:42:15;;;;;;;;;4.33;4.33;;;;;18.63;47.38;101492.28;5098525;27;45281;-58
2021/11/14 01:44:41;;;;;;;;;4.67;3.67;;;;;18.62;47.20;101487.84;5098706;27;45280;-57
2021/11/14 01:47:06;;;;;;;;;4.00;4.00;;;;;18.62;47.66;101487.84;5098741;27;45473;-58
2021/11/14 01:49:32;;;;;;;;;2.33;2.00;;;;;18.62;47.43;101490.50;5098534;27;46089;-58
2021/11/14 01:51:57;;;;;;;;;4.33;4.33;;;;;18.61;47.45;101494.06;5098631;27;45238;-58
2021/11/14 01:54:23;;;;;;;;;4.00;4.00;;;;;18.62;47.68;101498.50;5098874;27;45324;-58
2021/11/14 01:56:49;;;;;;;;;3.33;3.33;;;;;18.60;47.49;101501.16;5098821;27;45388;-58
2021/11/14 01:59:14;;;;;;;;;3.33;3.33;;;;;18.60;47.48;101497.63;5097105;27;46524;-57
2021/11/14 02:01:40;;;;;;;;;3.33;3.33;;;;;18.59;47.47;101496.72;5098534;27;45187;-58
2021/11/14 02:04:07;;;;;;;;;3.67;3.67;;;;;18.59;47.31;101504.72;5097730;27;45225;-57
2021/11/14 02:06:34;;;;;;;;;4.67;4.33;;;;;18.59;47.49;101507.38;5098790;27;45161;-58
2021/11/14 02:09:03;;;;;;;;;4.00;3.00;;;;;18.59;47.46;101499.38;5098305;27;45325;-58
2021/11/14 02:11:28;;;;;;;;;5.00;3.67;;;;;18.58;47.45;101505.63;5098258;27;45281;-57
2021/11/14 02:13:54;;;;;;;;;6.00;3.00;;;;;18.57;47.45;101498.50;5098285;27;45401;-58
2021/11/14 02:16:23;;;;;;;;;3.00;3.00;;;;;18.56;47.35;101504.75;5098307;27;45547;-58
2021/11/14 02:18:49;;;;;;;;;4.67;4.00;;;;;18.57;47.42;101514.47;5097998;27;46335;-58
2021/11/14 02:21:15;;;;;;;;;3.33;3.33;;;;;18.56;47.61;101507.41;5098183;27;45434;-58
2021/11/14 02:23:41;;;;;;;;;4.00;4.00;;;;;18.55;47.71;101508.28;5098235;27;45322;-58
2021/11/14 02:26:07;;;;;;;;;3.67;3.67;;;;;18.56;47.44;101502.06;5098332;27;45289;-58
2021/11/14 02:28:32;;;;;;;;;4.00;4.00;;;;;18.56;47.47;101506.50;5097805;27;45982;-58
2021/11/14 02:30:59;;;;;;;;;3.67;2.67;;;;;18.55;47.36;101510.06;5098091;27;45388;-58
2021/11/14 02:33:26;;;;;;;;;3.00;3.00;;;;;18.54;47.57;101511.84;5098120;27;45254;-58
2021/11/14 02:35:55;;;;;;;;;3.33;3.33;;;;;18.54;47.49;101503.84;5098470;27;45464;-58
2021/11/14 02:38:22;;;;;;;;;2.67;2.67;;;;;18.53;47.35;101507.41;5097672;27;47295;-58
2021/11/14 02:40:50;;;;;;;;;2.33;2.33;;;;;18.54;47.49;101500.31;5097642;27;45423;-57
2021/11/14 02:43:18;;;;;;;;;3.00;3.00;;;;;18.53;47.23;101502.06;5097861;27;45309;-57
2021/11/14 02:45:44;;;;;;;;;3.00;3.00;;;;;18.51;47.55;101499.41;5098192;27;45346;-58
2021/11/14 02:48:12;;;;;;;;;5.33;4.00;;;;;18.52;47.65;101500.31;5097727;27;47427;-58
2021/11/14 02:50:38;;;;;;;;;4.00;4.00;;;;;18.51;47.42;101491.44;5097723;27;45388;-58
2021/11/14 02:53:05;;;;;;;;;3.33;3.33;;;;;18.51;47.63;101495.88;5097545;27;45353;-58
2021/11/14 02:55:32;;;;;;;;;5.00;3.33;;;;;18.50;47.55;101495.00;5097819;27;45501;-58
2021/11/14 02:57:57;;;;;;;;;3.33;3.33;;;;;18.50;47.85;101492.34;5097460;27;47564;-58
2021/11/14 03:00:39;;;;;;;;;3.67;3.67;;;;;18.50;47.69;101496.78;5097734;27;45321;-58
2021/11/14 03:03:05;;;;;;;;;4.67;3.33;;;;;18.50;47.54;101496.78;5097835;27;45212;-58
2021/11/14 03:05:31;;;;;;;;;3.00;3.00;;;;;18.50;47.66;101494.13;5096582;27;45250;-58
2021/11/14 03:07:58;;;;;;;;;4.00;4.00;;;;;18.50;47.35;101494.13;5097576;27;46205;-58
2021/11/14 03:10:27;;;;;;;;;2.00;2.00;;;;;18.49;47.63;101495.88;5097599;27;45337;-58
2021/11/14 03:13:14;;;;;;;;;1.67;1.67;;;;;18.48;47.67;101487.91;5097600;27;45320;-59
2021/11/14 03:15:44;;;;;;;;;3.00;3.00;;;;;18.47;47.64;101492.34;5099358;27;45249;-58
2021/11/14 03:18:09;;;;;;;;;3.67;3.67;;;;;18.48;47.36;101495.91;5100665;27;46270;-58
2021/11/14 03:20:37;;;;;;;;;3.00;3.00;;;;;18.47;47.36;101497.66;5100655;27;45500;-58
2021/11/14 03:23:04;;;;;;;;;3.67;3.33;;;;;18.47;47.44;101496.78;5099534;27;45332;-58
2021/11/14 03:25:29;;;;;;;;;3.33;3.33;;;;;18.46;47.39;101500.34;5100831;27;45409;-58
2021/11/14 03:27:56;;;;;;;;;5.00;3.00;;;;;18.46;47.86;101495.00;5100319;27;46893;-59
2021/11/14 03:30:23;;;;;;;;;3.33;3.33;;;;;18.46;47.82;101506.56;5100555;27;45295;-58
2021/11/14 03:32:50;;;;;;;;;2.33;2.33;;;;;18.46;47.47;101500.34;5100836;27;45332;-58
2021/11/14 03:35:17;;;;;;;;;3.67;3.67;;;;;18.45;47.75;101499.44;5101005;27;45408;-58
2021/11/14 03:37:43;;;;;;;;;4.33;2.67;;;;;18.45;47.79;101503.88;5100195;27;47125;-58
2021/11/14 03:40:12;;;;;;;;;2.33;2.00;;;;;18.45;47.85;101511.84;5100605;27;45368;-58
2021/11/14 03:42:37;;;;;;;;;2.00;2.00;;;;;18.44;47.54;101510.09;5100771;27;45337;-57
2021/11/14 03:45:05;;;;;;;;;2.67;2.67;;;;;18.44;47.85;101513.66;5100729;27;45211;-58
2021/11/14 03:47:30;;;;;;;;;4.33;2.67;;;;;18.43;47.74;101501.22;5100546;27;46965;-58
2021/11/14 03:49:56;;;;;;;;;3.67;3.67;;;;;18.43;47.71;101505.66;5100467;27;45331;-58
2021/11/14 03:52:22;;;;;;;;;3.00;3.00;;;;;18.43;47.53;101503.00;5100668;27;45286;-58
2021/11/14 03:54:48;;;;;;;;;3.33;3.33;;;;;18.42;47.74;101499.47;5100382;27;45428;-58
2021/11/14 03:57:13;;;;;;;;;3.00;3.00;;;;;18.42;47.78;101502.13;5100393;27;46061;-58
2021/11/14 03:59:38;;;;;;;;;2.00;2.00;;;;;18.42;47.83;101503.91;5100294;27;45196;-58
2021/11/14 04:02:04;;;;;;;;;5.00;4.00;;;;;18.43;47.53;101505.66;5100255;27;45245;-58
2021/11/14 04:04:30;;;;;;;;;4.00;3.00;;;;;18.42;47.63;101509.22;5100592;27;45144;-58
2021/11/14 04:06:55;;;;;;;;;2.33;2.33;;;;;18.41;47.54;101497.69;5100328;27;45292;-58
2021/11/14 04:09:21;;;;;;;;;2.67;2.67;;;;;18.40;47.68;101510.09;5100134;27;45202;-58
2021/11/14 04:11:46;;;;;;;;;4.00;4.00;;;;;18.42;47.72;101506.56;5100520;27;45245;-58
2021/11/14 04:14:12;;;;;;;;;3.67;3.00;;;;;18.40;47.76;101504.78;5100533;27;45207;-58
2021/11/14 04:16:37;;;;;;;;;1.67;1.67;;;;;18.40;47.48;101506.56;5098779;27;47228;-58
2021/11/14 04:19:03;;;;;;;;;3.67;2.00;;;;;18.40;47.65;101506.56;5100011;27;45230;-58
2021/11/14 04:21:28;;;;;;;;;3.00;2.00;;;;;18.39;47.52;101503.03;5100005;27;45366;-58
2021/11/14 04:23:54;;;;;;;;;2.67;2.67;;;;;18.40;47.72;101501.25;5100353;27;45385;-58
2021/11/14 04:26:20;;;;;;;;;3.33;2.00;;;;;18.40;47.79;101493.25;5099215;27;46935;-58
2021/11/14 04:28:45;;;;;;;;;3.00;2.33;;;;;18.39;47.47;101492.38;5099981;27;45443;-58
2021/11/14 04:31:11;;;;;;;;;2.00;2.00;;;;;18.39;47.68;101499.47;5099727;27;45304;-58
2021/11/14 04:33:37;;;;;;;;;3.00;3.00;;;;;18.39;47.80;101494.13;5100133;27;45411;-58
2021/11/14 04:36:03;;;;;;;;;2.33;2.00;;;;;18.38;47.61;101487.94;5099646;27;46353;-58
2021/11/14 04:38:29;;;;;;;;;8.33;3.00;;;;;18.38;47.71;101489.72;5099324;27;45284;-58
2021/11/14 04:40:55;;;;;;;;;3.00;2.00;;;;;18.37;47.78;101494.16;5099414;27;45408;-58
2021/11/14 04:43:21;;;;;;;;;2.00;2.00;;;;;18.37;47.92;101498.59;5099785;27;45204;-57
2021/11/14 04:45:48;;;;;;;;;5.00;3.33;;;;;18.36;47.68;101500.34;5099424;27;46336;-58
2021/11/14 04:48:14;;;;;;;;;1.67;1.67;;;;;18.36;47.78;101497.69;5099437;27;45374;-58
2021/11/14 04:50:41;;;;;;;;;2.33;2.33;;;;;18.35;47.59;101501.25;5099597;27;45388;-58
2021/11/14 04:53:07;;;;;;;;;4.00;2.67;;;;;18.35;47.54;101498.59;5099556;27;45321;-58
2021/11/14 04:55:34;;;;;;;;;3.67;2.00;;;;;18.36;47.77;101508.34;5099113;27;46143;-58
2021/11/14 04:58:00;;;;;;;;;3.67;3.67;;;;;18.36;47.79;101503.00;5099397;27;45152;-58
2021/11/14 05:00:32;;;;;;;;;2.33;2.33;;;;;18.36;47.84;101503.00;5099385;27;45328;-58
2021/11/14 05:02:57;;;;;;;;;3.00;3.00;;;;;18.34;47.70;101502.13;5099547;27;45419;-58
2021/11/14 05:05:23;;;;;;;;;2.33;2.33;;;;;18.34;47.56;101502.13;5099043;27;46553;-58
2021/11/14 05:07:49;;;;;;;;;2.00;2.00;;;;;18.34;47.73;101502.13;5099291;27;45244;-58
2021/11/14 05:10:15;;;;;;;;;3.00;3.00;;;;;18.34;47.47;101506.59;5099262;27;45225;-58
2021/11/14 05:12:40;;;;;;;;;2.00;2.00;;;;;18.35;47.40;101503.03;5098360;27;45266;-58
2021/11/14 05:15:07;;;;;;;;;2.00;2.00;;;;;18.33;47.58;101495.06;5098969;27;46033;-58
2021/11/14 05:17:33;;;;;;;;;2.67;2.67;;;;;18.32;47.96;101501.25;5099188;27;45194;-58
2021/11/14 05:19:58;;;;;;;;;3.67;3.67;;;;;18.33;47.69;101494.16;5099193;27;45255;-59
2021/11/14 05:22:24;;;;;;;;;3.00;3.00;;;;;18.31;47.71;101491.50;5097958;27;45347;-58
2021/11/14 05:24:49;;;;;;;;;3.00;3.00;;;;;18.32;47.77;101495.94;5098805;27;46107;-57
2021/11/14 05:27:15;;;;;;;;;3.33;3.33;;;;;18.32;47.71;101501.25;5098768;27;45293;-58
2021/11/14 05:29:41;;;;;;;;;2.00;2.00;;;;;18.33;47.75;101495.06;5098772;27;45319;-58
2021/11/14 05:32:06;;;;;;;;;2.67;2.67;;;;;18.31;47.63;101494.16;5099073;27;45301;-58
2021/11/14 05:34:32;;;;;;;;;5.00;4.00;;;;;18.32;47.57;101497.72;5098850;27;47336;-58
2021/11/14 05:36:57;;;;;;;;;3.33;3.00;;;;;18.32;47.72;101493.25;5098280;27;45305;-58
2021/11/14 05:39:23;;;;;;;;;2.33;2.33;;;;;18.31;47.88;101491.50;5098561;27;45305;-58
2021/11/14 05:41:48;;;;;;;;;2.00;2.00;;;;;18.31;48.00;101493.28;5098563;27;45175;-58
2021/11/14 05:44:14;;;;;;;;;3.33;3.33;;;;;18.30;47.63;101494.19;5098470;27;46886;-58
2021/11/14 05:46:40;;;;;;;;;3.00;3.00;;;;;18.31;47.89;101502.16;5098678;27;45283;-57
2021/11/14 05:49:08;;;;;;;;;3.00;3.00;;;;;18.30;47.66;101489.72;5098848;27;45209;-57
2021/11/14 05:51:35;;;;;;;;;3.00;3.00;;;;;18.30;47.59;101503.03;5099089;27;45427;-58
2021/11/14 05:54:01;;;;;;;;;4.67;3.00;;;;;18.30;48.00;101511.00;5098311;27;46339;-58
2021/11/14 05:56:27;;;;;;;;;2.00;2.00;;;;;18.30;47.64;101508.34;5098407;27;45431;-58
2021/11/14 05:58:59;;;;;;;;;3.67;3.67;;;;;18.29;47.80;101514.59;5098722;27;45313;-58
2021/11/14 06:01:47;;;;;;;;;2.00;2.00;;;;;18.30;47.50;101512.81;5098656;27;45352;-59
2021/11/14 06:04:23;;;;;;;;;3.00;3.00;;;;;18.28;47.80;101513.69;5098178;27;46802;-58
2021/11/14 06:06:49;;;;;;;;;2.67;2.33;;;;;18.28;47.69;101518.13;5098457;27;45266;-58
2021/11/14 06:09:14;;;;;;;;;2.33;2.33;;;;;18.28;47.88;101515.47;5098538;27;45509;-58
2021/11/14 06:11:40;;;;;;;;;5.00;2.67;;;;;18.28;47.99;101520.78;5098677;27;45366;-58
2021/11/14 06:14:06;;;;;;;;;3.00;3.00;;;;;18.27;47.93;101517.22;5098379;27;46764;-58
2021/11/14 06:16:31;;;;;;;;;3.33;3.00;;;;;18.28;47.92;101518.13;5098419;27;45320;-58
2021/11/14 06:18:57;;;;;;;;;2.00;2.00;;;;;18.28;47.82;101518.13;5098557;27;45204;-57
2021/11/14 06:21:23;;;;;;;;;2.00;2.00;;;;;18.27;47.89;101513.69;5098614;27;45403;-59
2021/11/14 06:23:49;;;;;;;;;3.00;3.00;;;;;18.26;47.91;101523.44;5098167;27;47148;-58
2021/11/14 06:26:15;;;;;;;;;4.67;3.00;;;;;18.26;47.91;101527.88;5098257;27;45432;-58
2021/11/14 06:28:40;;;;;;;;;2.67;2.33;;;;;18.26;47.93;101530.53;5097959;27;45300;-58
2021/11/14 06:31:06;;;;;;;;;1.33;1.33;;;;;18.25;47.91;101532.31;5098400;27;45230;-58
2021/11/14 06:33:31;;;;;;;;;3.67;3.00;;;;;18.27;47.96;101532.34;5096807;27;48510;-57
2021/11/14 06:35:56;;;;;;;;;2.67;2.67;;;;;18.25;47.66;101537.63;5098195;27;45474;-58
2021/11/14 06:38:22;;;;;;;;;1.00;1.00;;;;;18.25;48.07;101532.31;5097737;27;45456;-58
2021/11/14 06:40:47;;;;;;;;;2.33;2.00;;;;;18.25;47.99;101544.75;5097982;27;45467;-58
2021/11/14 06:43:13;;;;;;;;;3.00;3.00;;;;;18.24;47.79;101538.53;5097918;27;47165;-58
2021/11/14 06:45:38;;;;;;;;;4.00;3.00;;;;;18.25;47.99;101544.75;5097701;27;45293;-57
2021/11/14 06:48:04;;;;;;;;;3.00;2.00;;;;;18.23;47.77;101539.41;5098099;27;45509;-58
2021/11/14 06:50:29;;;;;;;;;4.00;3.33;;;;;18.24;47.87;101543.84;5101300;27;45841;-57
2021/11/14 06:52:55;;;;;;;;;4.00;4.00;;;;;18.26;48.01;101546.50;5101214;27;46815;-57
2021/11/14 06:55:20;;;;;;;;;2.00;2.00;;;;;18.28;47.88;101553.59;5101351;27;45429;-58
2021/11/14 06:57:48;;;;;;;;;3.00;3.00;;;;;18.29;47.77;101551.84;5101609;27;45213;-57
2021/11/14 07:00:16;;;;;;;;;2.33;2.33;;;;;18.30;47.92;101556.25;5101708;27;45159;-58
2021/11/14 07:02:42;;;;;;;;;2.33;1.33;;;;;18.32;47.89;101550.97;5100913;27;45427;-58
2021/11/14 07:05:09;;;;;;;;;3.67;2.00;;;;;18.33;48.11;101555.38;5100981;27;45423;-58
2021/11/14 07:07:35;;;;;;;;;2.00;2.00;;;;;18.35;47.88;101564.25;5101561;27;45267;-58
2021/11/14 07:10:01;;;;;;;;;2.33;2.00;;;;;18.37;47.55;101567.78;5101201;27;45433;-57
2021/11/14 07:12:27;;;;;;;;;2.00;2.00;;;;;18.38;47.67;101572.25;5100625;27;46345;-58
2021/11/14 07:14:53;;;;;;;;;4.00;2.33;;;;;18.38;47.68;101573.09;5100834;27;45237;-57
2021/11/14 07:17:22;;;;;;;;;2.00;2.00;;;;;18.41;47.56;101572.22;5101077;27;45302;-58
2021/11/14 07:19:47;;;;;;;;;1.67;1.00;;;;;18.42;47.63;101570.44;5101309;27;45253;-58
2021/11/14 07:22:12;;;;;;;;;2.00;2.00;;;;;18.44;47.69;101574.00;5100848;27;47234;-58
2021/11/14 07:24:38;;;;;;;;;2.00;2.00;;;;;18.45;47.46;101583.75;5100761;27;45412;-57
2021/11/14 07:27:04;;;;;;;;;2.00;1.00;;;;;18.45;47.30;101579.31;5101194;27;45281;-58
2021/11/14 07:29:29;;;;;;;;;2.00;2.00;;;;;18.48;47.65;101583.75;5100968;27;45213;-58
2021/11/14 07:31:54;;;;;;;;;2.00;2.00;;;;;18.49;47.63;101599.72;5100535;27;46515;-57
2021/11/14 07:34:20;;;;;;;;;2.00;2.00;;;;;18.50;47.64;101592.63;5100749;27;45245;-58
2021/11/14 07:36:45;;;;;;;;;2.00;2.00;;;;;18.50;47.49;101590.84;5100840;27;45198;-58
2021/11/14 07:39:11;;;;;;;;;1.00;1.00;;;;;18.51;47.49;101603.25;5101180;27;45330;-58
2021/11/14 07:41:36;;;;;;;;;0.67;0.00;;;;;18.53;47.56;101603.25;5100181;27;46253;-58
2021/11/14 07:44:03;;;;;;;;;2.00;1.33;;;;;18.54;47.55;101594.38;5100593;27;45407;-58
2021/11/14 07:46:28;;;;;;;;;0.67;0.67;;;;;18.55;47.29;101596.13;5100909;27;45459;-58
2021/11/14 07:48:55;;;;;;;;;2.33;1.00;;;;;18.56;47.57;101603.25;5101042;27;45601;-58
2021/11/14 07:51:20;;;;;;;;;2.67;0.67;;;;;18.56;47.62;101600.59;5100562;27;46121;-58
2021/11/14 07:53:46;;;;;;;;;1.00;1.00;;;;;18.57;47.59;101607.66;5100249;27;45300;-58
2021/11/14 07:56:11;;;;;;;;;1.00;1.00;;;;;18.58;47.66;101617.44;5100500;27;45270;-58
2021/11/14 07:58:37;;;;;;;;;2.00;2.00;;;;;18.58;47.39;101617.44;5100619;27;45302;-58
2021/11/14 08:01:02;;;;;;;;;1.00;1.00;;;;;18.58;47.44;101617.44;5099359;27;46436;-58
2021/11/14 08:03:32;;;;;;;;;2.00;2.00;;;;;18.60;47.56;101617.44;5100467;27;45403;-58
2021/11/14 08:05:59;;;;;;;;;2.00;1.00;;;;;18.60;47.48;101621.00;5100484;27;45208;-58
2021/11/14 08:08:24;;;;;;;;;1.67;1.67;;;;;18.62;47.42;101623.66;5100508;27;45319;-58
2021/11/14 08:10:49;;;;;;;;;0.67;0.67;;;;;18.62;47.36;101632.53;5099971;27;46268;-58
2021/11/14 08:13:15;;;;;;;;;1.00;1.00;;;;;18.63;47.38;101625.44;5099984;27;45300;-58
2021/11/14 08:15:41;;;;;;;;;1.33;1.33;;;;;18.62;47.57;101629.88;5100262;27;45288;-58
2021/11/14 08:18:06;;;;;;;;;1.00;1.00;;;;;18.61;47.51;101630.75;5100156;27;45445;-58
2021/11/14 08:20:33;;;;;;;;;2.33;1.67;;;;;18.62;47.38;101632.53;5100099;27;46012;-58
2021/11/14 08:23:08;;;;;;;;;2.67;2.33;;;;;18.64;47.55;101629.84;5100054;27;45243;-58
2021/11/14 08:25:34;;;;;;;;;1.00;0.67;;;;;18.64;47.75;101632.53;5099957;27;45380;-58
2021/11/14 08:28:00;;;;;;;;;3.00;1.00;;;;;18.62;47.67;101621.88;5100052;27;45228;-57
2021/11/14 08:30:26;;;;;;;;;2.00;2.00;;;;;18.64;47.39;101627.19;5099605;27;45424;-58
2021/11/14 08:32:53;;;;;;;;;4.00;2.00;;;;;18.64;47.54;101632.53;5099753;27;45304;-58
2021/11/14 08:35:20;;;;;;;;;1.33;1.33;;;;;18.63;47.31;101631.63;5099995;27;45377;-57
2021/11/14 08:37:47;;;;;;;;;1.33;1.33;;;;;18.64;47.54;101632.53;5099747;27;45481;-58
2021/11/14 08:40:13;;;;;;;;;2.00;1.00;;;;;18.63;47.50;101623.63;5099326;27;46352;-58
2021/11/14 08:42:39;;;;;;;;;2.00;1.00;;;;;18.64;47.57;101629.84;5099412;27;45347;-58
2021/11/14 08:45:06;;;;;;;;;0.67;0.67;;;;;18.65;47.53;101630.75;5099846;27;45266;-58
2021/11/14 08:47:33;;;;;;;;;1.67;1.67;;;;;18.66;47.39;101629.84;5099969;27;45380;-58
2021/11/14 08:49:59;;;;;;;;;0.67;0.67;;;;;18.65;47.42;101628.97;5099463;27;47051;-58
2021/11/14 08:52:24;;;;;;;;;2.00;0.67;;;;;18.66;47.52;101616.53;5099352;27;45327;-57
2021/11/14 08:54:50;;;;;;;;;2.33;2.33;;;;;18.66;47.73;101627.19;5099374;27;45243;-57
2021/11/14 08:57:18;;;;;;;;;2.00;2.00;;;;;18.67;47.50;101628.97;5099491;27;45311;-58
2021/11/14 08:59:47;;;;;;;;;1.67;1.67;;;;;18.67;47.68;101634.28;5097860;27;46207;-57
2021/11/14 09:02:13;;;;;;;;;1.67;1.67;;;;;18.67;47.79;101640.50;5098966;27;45385;-58
2021/11/14 09:04:39;;;;;;;;;1.67;1.67;;;;;18.68;47.52;101633.38;5099326;27;45289;-58
2021/11/14 09:07:05;;;;;;;;;0.67;0.67;;;;;18.70;47.78;101639.59;5099530;27;45328;-58
2021/11/14 09:09:32;;;;;;;;;1.67;1.67;;;;;18.71;47.89;101638.72;5098930;27;47190;-58
2021/11/14 09:11:57;;;;;;;;;0.67;0.67;;;;;18.72;47.63;101635.16;5098862;27;45453;-57
2021/11/14 09:14:23;;;;;;;;;0.67;0.67;;;;;18.73;47.62;101615.63;5099346;27;45279;-58
2021/11/14 09:16:54;;;;;;;;;1.67;1.67;;;;;18.74;48.04;101625.41;5099571;27;45207;-58
2021/11/14 09:19:21;;;;;;;;;0.50;0.50;;;;;18.75;47.63;101632.50;5099127;27;45380;-57
2021/11/14 09:21:47;;;;;;;;;2.67;0.67;;;;;18.76;47.88;101634.28;5098852;27;45325;-57
2021/11/14 09:24:13;;;;;;;;;1.00;1.00;;;;;18.77;47.91;101637.81;5098909;27;45330;-58
2021/11/14 09:26:39;;;;;;;;;1.33;1.33;;;;;18.77;47.36;101637.81;5099227;27;45555;-58
2021/11/14 09:29:05;;;;;;;;;2.00;1.33;;;;;18.79;48.12;101646.69;5098695;27;46020;-57
2021/11/14 09:31:33;;;;;;;;;1.67;0.67;;;;;18.79;47.90;101646.69;5098726;27;45406;-57
2021/11/14 09:33:59;;;;;;;;;1.33;1.33;;;;;18.79;48.21;101642.25;5098773;27;45223;-57
2021/11/14 09:36:30;;;;;;;;;0.33;0.33;;;;;18.81;47.84;101645.81;5099021;27;45477;-57
2021/11/14 09:39:00;;;;;;;;;2.33;1.33;;;;;18.82;47.84;101647.59;5098040;27;46937;-58
2021/11/14 09:41:25;;;;;;;;;1.00;1.00;;;;;18.81;47.93;101651.13;5098449;27;45522;-57
2021/11/14 09:43:53;;;;;;;;;2.00;0.67;;;;;18.82;47.98;101639.59;5098722;27;45311;-57
2021/11/14 09:46:20;;;;;;;;;1.00;1.00;;;;;18.83;47.75;101648.44;5099096;27;45349;-58
2021/11/14 09:48:47;;;;;;;;;2.00;2.00;;;;;18.83;47.91;101643.13;5098473;27;46366;-58
2021/11/14 09:51:12;;;;;;;;;1.67;1.67;;;;;18.82;47.87;101642.25;5098456;27;45148;-58
2021/11/14 09:53:38;;;;;;;;;0.67;0.67;;;;;18.83;47.70;101649.34;5098232;27;45765;-57
2021/11/14 09:56:06;;;;;;;;;0.67;0.67;;;;;18.84;47.86;101656.47;5098875;27;45370;-57
2021/11/14 09:58:31;;;;;;;;;1.67;1.67;;;;;18.84;47.98;101653.81;5098575;27;45501;-57
2021/11/14 10:00:57;;;;;;;;;2.00;1.00;;;;;18.85;47.66;101662.66;5098350;27;45327;-57
2021/11/14 10:03:23;;;;;;;;;0.67;0.67;;;;;18.85;48.04;101658.22;5098229;27;45388;-58
2021/11/14 10:05:49;;;;;;;;;1.00;1.00;;;;;18.86;47.51;101661.78;5098831;27;45384;-57
2021/11/14 10:08:16;;;;;;;;;0.33;0.33;;;;;18.86;47.67;101654.69;5098370;27;46984;-58
2021/11/14 10:10:48;;;;;;;;;1.67;1.67;;;;;18.85;47.98;101652.91;5098007;27;46155;-58
2021/11/14 10:13:23;;;;;;;;;1.67;0.67;;;;;18.85;47.86;101657.31;5098160;27;45221;-58
2021/11/14 10:15:56;;;;;;;;;2.00;1.00;;;;;18.86;47.95;101660.00;5098479;27;45184;-58
2021/11/14 10:18:22;;;;;;;;;0.67;0.67;;;;;18.86;47.86;101657.34;5098085;27;46868;-58
2021/11/14 10:20:54;;;;;;;;;2.00;1.00;;;;;18.87;47.94;101660.88;5098085;27;45254;-58
2021/11/14 10:23:19;;;;;;;;;3.33;1.67;;;;;18.88;48.11;101651.13;5097976;27;45403;-57
2021/11/14 10:25:47;;;;;;;;;0.33;0.33;;;;;18.87;48.02;101655.53;5101887;27;45472;-58
2021/11/14 10:28:13;;;;;;;;;3.00;2.00;;;;;18.86;47.97;101654.69;5101784;27;46213;-58
2021/11/14 10:30:42;;;;;;;;;0.67;0.67;;;;;18.86;47.80;101657.34;5101445;27;45313;-58
2021/11/14 10:33:11;;;;;;;;;1.33;1.33;;;;;18.87;48.13;101663.53;5100328;27;45238;-58
2021/11/14 10:35:38;;;;;;;;;0.67;0.67;;;;;18.87;48.19;101660.88;5101607;27;45456;-59
2021/11/14 10:38:07;;;;;;;;;1.00;1.00;;;;;18.85;48.32;101650.22;5101263;27;46184;-57
2021/11/14 10:40:37;;;;;;;;;1.00;1.00;;;;;18.85;48.30;101650.22;5101200;27;45290;-58
2021/11/14 10:43:06;;;;;;;;;2.00;1.67;;;;;18.86;48.24;101654.69;5101524;27;45239;-57
2021/11/14 10:45:36;;;;;;;;;1.67;1.67;;;;;18.86;48.38;101657.34;5101626;27;45360;-58
2021/11/14 10:48:05;;;;;;;;;2.67;2.33;;;;;18.86;48.04;101654.69;5101238;27;47056;-58
2021/11/14 10:50:35;;;;;;;;;0.67;0.67;;;;;18.88;48.31;101651.13;5100948;27;45456;-57
2021/11/14 10:53:21;;;;;;;;;0.67;0.67;;;;;18.88;48.20;101653.78;5101133;27;45345;-57
2021/11/14 10:55:50;;;;;;;;;1.67;1.67;;;;;18.89;48.19;101658.22;5099983;27;45583;-54
2021/11/14 10:58:17;;;;;;;;;3.00;1.00;;;;;18.89;48.30;101659.09;5101148;27;47498;-51
2021/11/14 11:00:44;;;;;;;;;1.00;1.00;;;;;18.90;48.42;101660.00;5101060;27;45298;-61
2021/11/14 11:03:11;;;;;;;;;0.67;0.67;;;;;18.90;48.25;101662.66;5100750;27;45247;-55
2021/11/14 11:05:37;;;;;;;;;1.00;1.00;;;;;18.91;48.39;101661.78;5101309;27;45427;-59
2021/11/14 11:08:12;;;;;;;;;0.67;0.67;;;;;18.91;48.52;101656.44;5100980;27;46107;-58
2021/11/14 11:10:53;;;;;;;;;2.00;1.67;;;;;18.92;48.42;101663.53;5100929;27;45332;-62
2021/11/14 11:13:34;;;;;;;;;0.67;0.67;;;;;18.93;48.28;101666.19;5100982;27;45341;-57
2021/11/14 11:16:11;;;;;;;;;4.00;2.00;;;;;18.92;48.22;101664.44;5101408;27;45469;-58
2021/11/14 11:18:38;;;;;;;;;4.00;2.00;;;;;18.92;48.30;101648.44;5100601;27;46317;-58
2021/11/14 11:21:06;;;;;;;;;1.33;1.33;;;;;18.94;48.31;101651.09;5099568;27;45550;-57
2021/11/14 11:23:34;;;;;;;;;2.33;1.00;;;;;18.94;48.15;101661.75;5100849;27;45324;-58